Time;durP1;ratioP1;P1;durP2;ratioP2;P2;SDS_P1;SDS_P2;PMS_P1;PMS_P2;Temp;Humidity;BMP_temperature;BMP_pressure;BME280_temperature;BME280_humidity;BME280_pressure;Samples;Min_cycle;Max_cycle;Signal;HPM_P1;HPM_P2
2023/08/15 00:01:28;;;;;;;;;;;23.70;60.50;;;;;;5091982;28;19930;-59
2023/08/15 00:03:56;;;;;;;;;;;23.70;60.50;;;;;;5116131;27;19923;-59
2023/08/15 00:06:23;;;;;;;;;;;23.70;60.50;;;;;;5104354;27;19928;-60
2023/08/15 00:08:53;;;;;;;;;;;23.60;60.30;;;;;;5101020;27;19992;-60
2023/08/15 00:11:20;;;;;;;;;;;23.70;60.50;;;;;;5098804;28;20031;-60
2023/08/15 00:13:47;;;;;;;;;;;23.70;60.50;;;;;;5125392;27;20015;-59
2023/08/15 00:16:14;;;;;;;;;;;23.60;60.40;;;;;;5098070;27;19923;-59
2023/08/15 00:18:41;;;;;;;;;;;23.70;60.50;;;;;;5103300;27;19924;-59
2023/08/15 00:21:09;;;;;;;;;;;23.60;60.30;;;;;;5099698;27;19927;-60
2023/08/15 00:23:36;;;;;;;;;;;23.70;60.50;;;;;;5113336;27;19932;-59
2023/08/15 00:26:03;;;;;;;;;;;23.60;60.30;;;;;;5115616;27;20265;-59
2023/08/15 00:28:29;;;;;;;;;;;23.60;60.30;;;;;;5104831;27;19993;-59
2023/08/15 00:30:56;;;;;;;;;;;23.70;60.50;;;;;;5088894;28;19928;-59
2023/08/15 00:33:23;;;;;;;;;;;23.60;60.30;;;;;;5119092;27;19935;-59
2023/08/15 00:35:49;;;;;;;;;;;23.60;60.30;;;;;;5101520;28;19932;-59
2023/08/15 00:38:18;;;;;;;;;;;23.60;60.30;;;;;;5119812;27;19928;-60
2023/08/15 00:40:44;;;;;;;;;;;23.60;60.30;;;;;;5099214;28;19920;-60
2023/08/15 00:43:11;;;;;;;;;;;23.60;60.30;;;;;;5102682;28;19930;-59
2023/08/15 00:45:39;;;;;;;;;;;23.60;60.30;;;;;;5121454;27;20320;-60
2023/08/15 00:48:06;;;;;;;;;;;23.60;60.30;;;;;;5102831;28;20368;-60
2023/08/15 00:50:33;;;;;;;;;;;23.60;60.30;;;;;;5119762;27;19932;-59
2023/08/15 00:53:00;;;;;;;;;;;23.60;60.30;;;;;;5127307;27;19975;-60
2023/08/15 00:55:28;;;;;;;;;;;23.60;60.30;;;;;;5108304;28;19928;-59
2023/08/15 00:57:55;;;;;;;;;;;23.60;60.30;;;;;;5113221;27;19924;-60
2023/08/15 01:00:22;;;;;;;;;;;23.60;60.30;;;;;;5097775;28;19924;-60
2023/08/15 01:02:48;;;;;;;;;;;23.60;60.30;;;;;;5122925;28;19976;-59
2023/08/15 01:05:15;;;;;;;;;;;23.60;60.30;;;;;;5095371;28;19928;-60
2023/08/15 01:07:42;;;;;;;;;;;23.60;60.30;;;;;;5103529;28;20245;-60
2023/08/15 01:10:09;;;;;;;;;;;23.60;60.30;;;;;;5124682;28;19924;-59
2023/08/15 01:12:39;;;;;;;;;;;23.60;60.30;;;;;;5084532;28;20416;-60
2023/08/15 01:15:07;;;;;;;;;;;23.60;60.30;;;;;;5088776;28;19930;-59
2023/08/15 01:17:35;;;;;;;;;;;23.60;60.40;;;;;;5098135;28;19923;-59
2023/08/15 01:20:15;;;;;;;;;;;23.60;60.40;;;;;;5102118;28;20345;-59
2023/08/15 01:22:42;;;;;;;;;;;23.60;60.40;;;;;;5097410;28;20349;-59
2023/08/15 01:25:10;;;;;;;;;;;23.60;60.40;;;;;;5100184;28;19924;-59
2023/08/15 01:27:37;;;;;;;;;;;23.60;60.40;;;;;;5136088;27;19928;-59
2023/08/15 01:30:04;;;;;;;;;;;23.60;60.40;;;;;;5123535;28;19928;-59
2023/08/15 01:32:32;;;;;;;;;;;23.60;60.40;;;;;;5106009;28;20365;-59
2023/08/15 01:35:00;;;;;;;;;;;23.60;60.40;;;;;;5120964;28;19938;-59
2023/08/15 01:37:28;;;;;;;;;;;23.60;60.50;;;;;;5101191;28;19931;-59
2023/08/15 01:39:55;;;;;;;;;;;23.60;60.50;;;;;;5108107;28;19923;-59
2023/08/15 01:42:23;;;;;;;;;;;23.60;60.60;;;;;;5097961;28;19923;-59
2023/08/15 01:44:50;;;;;;;;;;;23.60;60.60;;;;;;5119065;28;19928;-59
2023/08/15 01:47:16;;;;;;;;;;;23.60;60.70;;;;;;5113889;28;19927;-60
2023/08/15 01:49:43;;;;;;;;;;;23.60;60.80;;;;;;5112156;28;19924;-60
2023/08/15 01:52:10;;;;;;;;;;;23.60;60.80;;;;;;5107572;28;19924;-60
2023/08/15 01:54:37;;;;;;;;;;;23.60;60.80;;;;;;5101063;28;20136;-59
2023/08/15 01:57:03;;;;;;;;;;;23.60;60.80;;;;;;5095117;28;19935;-59
2023/08/15 01:59:31;;;;;;;;;;;23.60;60.80;;;;;;5109970;28;19924;-59
2023/08/15 02:01:58;;;;;;;;;;;23.60;60.80;;;;;;5096235;28;19928;-60
2023/08/15 02:04:25;;;;;;;;;;;23.60;60.80;;;;;;5112005;28;19924;-59
2023/08/15 02:06:52;;;;;;;;;;;23.60;60.90;;;;;;5097733;27;19927;-60
2023/08/15 02:09:18;;;;;;;;;;;23.60;60.90;;;;;;5129834;27;19923;-59
2023/08/15 02:11:45;;;;;;;;;;;23.60;61.00;;;;;;5099167;27;19976;-60
2023/08/15 02:14:12;;;;;;;;;;;23.60;61.10;;;;;;5107950;27;19934;-59
2023/08/15 02:16:40;;;;;;;;;;;23.60;61.10;;;;;;5130242;27;19980;-59
2023/08/15 02:19:07;;;;;;;;;;;23.60;61.10;;;;;;5101305;28;19950;-58
2023/08/15 02:21:34;;;;;;;;;;;23.60;61.20;;;;;;5096123;28;19970;-59
2023/08/15 02:24:00;;;;;;;;;;;23.60;61.20;;;;;;5109735;27;19931;-60
2023/08/15 02:26:27;;;;;;;;;;;23.60;61.20;;;;;;5097770;27;19988;-59
2023/08/15 02:28:54;;;;;;;;;;;23.60;61.10;;;;;;5108297;28;19999;-59
2023/08/15 02:31:21;;;;;;;;;;;23.60;61.10;;;;;;5102310;28;19923;-60
2023/08/15 02:33:49;;;;;;;;;;;23.60;61.10;;;;;;5122149;27;19943;-60
2023/08/15 02:36:16;;;;;;;;;;;23.60;61.10;;;;;;5120778;27;19949;-59
2023/08/15 02:38:42;;;;;;;;;;;23.60;61.10;;;;;;5098397;27;19932;-59
2023/08/15 02:41:09;;;;;;;;;;;23.60;61.10;;;;;;5112646;28;19931;-60
2023/08/15 02:43:36;;;;;;;;;;;23.60;61.10;;;;;;5124016;27;20079;-60
2023/08/15 02:46:02;;;;;;;;;;;23.60;61.10;;;;;;5104930;28;19923;-60
2023/08/15 02:48:29;;;;;;;;;;;23.60;61.10;;;;;;5112926;27;19968;-60
2023/08/15 02:50:57;;;;;;;;;;;23.60;61.10;;;;;;5127564;27;19923;-59
2023/08/15 02:53:24;;;;;;;;;;;23.60;61.10;;;;;;5099863;27;19928;-59
2023/08/15 02:55:51;;;;;;;;;;;23.60;61.10;;;;;;5109762;28;19927;-60
2023/08/15 02:58:20;;;;;;;;;;;23.60;61.10;;;;;;5078806;28;20505;-59
2023/08/15 03:00:46;;;;;;;;;;;23.60;61.10;;;;;;5116311;27;19928;-59
2023/08/15 03:03:13;;;;;;;;;;;23.60;61.20;;;;;;5113776;28;19928;-60
2023/08/15 03:05:40;;;;;;;;;;;23.60;61.30;;;;;;5114268;27;19927;-60
2023/08/15 03:08:08;;;;;;;;;;;23.60;61.20;;;;;;5109786;28;19931;-60
2023/08/15 03:10:36;;;;;;;;;;;23.60;61.20;;;;;;5096645;27;19928;-60
2023/08/15 03:13:03;;;;;;;;;;;23.60;62.00;;;;;;5110428;28;19928;-60
2023/08/15 03:15:29;;;;;;;;;;;23.60;61.30;;;;;;5122044;27;20015;-60
2023/08/15 03:17:57;;;;;;;;;;;23.60;61.30;;;;;;5091381;27;19932;-59
2023/08/15 03:20:24;;;;;;;;;;;23.60;61.30;;;;;;5106818;27;20022;-59
2023/08/15 03:22:51;;;;;;;;;;;23.60;61.30;;;;;;5098248;28;19943;-60
2023/08/15 03:25:19;;;;;;;;;;;23.60;61.30;;;;;;5111556;27;19976;-59
2023/08/15 03:27:46;;;;;;;;;;;23.60;61.30;;;;;;5099976;27;19972;-60
2023/08/15 03:30:12;;;;;;;;;;;23.60;61.40;;;;;;5107432;27;19931;-60
2023/08/15 03:32:39;;;;;;;;;;;23.60;61.40;;;;;;5103816;27;19927;-60
2023/08/15 03:35:07;;;;;;;;;;;23.60;61.40;;;;;;5101266;28;20401;-59
2023/08/15 03:37:35;;;;;;;;;;;23.60;61.40;;;;;;5123897;27;19969;-59
2023/08/15 03:40:03;;;;;;;;;;;23.60;61.40;;;;;;5101566;28;19920;-59
2023/08/15 03:42:31;;;;;;;;;;;23.60;61.40;;;;;;5103205;28;19923;-58
2023/08/15 03:44:58;;;;;;;;;;;23.60;61.40;;;;;;5100441;28;19934;-58
2023/08/15 03:47:25;;;;;;;;;;;23.60;61.50;;;;;;5129344;27;19972;-58
2023/08/15 03:49:52;;;;;;;;;;;23.60;61.40;;;;;;5109411;27;19927;-59
2023/08/15 03:52:19;;;;;;;;;;;23.60;61.50;;;;;;5109332;27;19928;-60
2023/08/15 03:54:45;;;;;;;;;;;23.60;61.50;;;;;;5115321;27;19924;-59
2023/08/15 03:57:12;;;;;;;;;;;23.60;62.00;;;;;;5109709;27;20022;-60
2023/08/15 03:59:40;;;;;;;;;;;23.60;61.50;;;;;;5106215;27;19932;-59
2023/08/15 04:02:07;;;;;;;;;;;23.60;61.60;;;;;;5105068;27;19931;-59
2023/08/15 04:04:34;;;;;;;;;;;23.60;61.60;;;;;;5106506;27;19977;-59
2023/08/15 04:07:01;;;;;;;;;;;23.60;61.60;;;;;;5104531;27;19923;-59
2023/08/15 04:09:27;;;;;;;;;;;23.60;61.60;;;;;;5111184;27;19955;-59
2023/08/15 04:11:54;;;;;;;;;;;23.60;61.60;;;;;;5128708;27;19928;-60
2023/08/15 04:14:21;;;;;;;;;;;23.60;61.60;;;;;;5104398;28;20330;-59
2023/08/15 04:16:49;;;;;;;;;;;23.60;61.60;;;;;;5101539;27;19931;-59
2023/08/15 04:19:16;;;;;;;;;;;23.60;61.70;;;;;;5099907;27;20010;-59
2023/08/15 04:21:43;;;;;;;;;;;23.60;61.70;;;;;;5093825;28;19928;-59
2023/08/15 04:24:09;;;;;;;;;;;23.60;61.70;;;;;;5121948;27;19963;-59
2023/08/15 04:26:36;;;;;;;;;;;23.60;61.70;;;;;;5116983;27;19932;-59
2023/08/15 04:29:03;;;;;;;;;;;23.60;61.70;;;;;;5105904;27;19972;-60
2023/08/15 04:31:30;;;;;;;;;;;23.60;61.70;;;;;;5102350;27;19985;-59
2023/08/15 04:33:58;;;;;;;;;;;23.60;61.70;;;;;;5100209;28;19985;-59
2023/08/15 04:36:25;;;;;;;;;;;23.60;61.80;;;;;;5102270;27;19943;-59
2023/08/15 04:38:51;;;;;;;;;;;23.60;61.80;;;;;;5105757;27;19976;-59
2023/08/15 04:41:18;;;;;;;;;;;23.60;61.70;;;;;;5105646;28;19947;-59
2023/08/15 04:43:45;;;;;;;;;;;23.60;61.80;;;;;;5103814;28;19931;-59
2023/08/15 04:46:12;;;;;;;;;;;23.60;61.80;;;;;;5123368;27;19924;-59
2023/08/15 04:48:38;;;;;;;;;;;23.60;61.90;;;;;;5100931;28;20349;-59
2023/08/15 04:51:06;;;;;;;;;;;23.60;61.90;;;;;;5118166;27;19931;-59
2023/08/15 04:53:33;;;;;;;;;;;23.60;61.90;;;;;;5121151;27;19927;-59
2023/08/15 04:56:00;;;;;;;;;;;23.60;62.00;;;;;;5124306;27;19928;-60
2023/08/15 04:58:27;;;;;;;;;;;23.60;62.00;;;;;;5103719;28;19931;-60
2023/08/15 05:00:54;;;;;;;;;;;23.60;62.00;;;;;;5124180;28;19927;-60
2023/08/15 05:03:20;;;;;;;;;;;23.60;62.00;;;;;;5099918;28;19931;-59
2023/08/15 05:05:48;;;;;;;;;;;23.60;62.10;;;;;;5092660;28;20019;-59
2023/08/15 05:08:16;;;;;;;;;;;23.60;62.20;;;;;;5093213;28;19932;-59
2023/08/15 05:10:43;;;;;;;;;;;23.60;62.30;;;;;;5097793;28;19976;-59
2023/08/15 05:13:09;;;;;;;;;;;23.60;62.30;;;;;;5110030;28;19924;-59
2023/08/15 05:15:36;;;;;;;;;;;23.70;62.50;;;;;;5115371;28;19924;-59
2023/08/15 05:18:03;;;;;;;;;;;23.60;62.30;;;;;;5094475;28;19924;-59
2023/08/15 05:20:32;;;;;;;;;;;23.60;62.30;;;;;;5123609;28;20203;-59
2023/08/15 05:22:58;;;;;;;;;;;23.70;62.50;;;;;;5097426;28;20018;-60
2023/08/15 05:25:27;;;;;;;;;;;23.70;62.60;;;;;;5113396;28;20389;-59
2023/08/15 05:27:53;;;;;;;;;;;23.70;62.60;;;;;;5093969;28;19973;-59
2023/08/15 05:30:20;;;;;;;;;;;23.70;62.60;;;;;;5095250;28;19939;-58
2023/08/15 05:32:47;;;;;;;;;;;23.70;62.60;;;;;;5095892;28;19930;-59
2023/08/15 05:35:14;;;;;;;;;;;23.70;62.60;;;;;;5105056;28;19924;-59
2023/08/15 05:37:40;;;;;;;;;;;23.70;62.70;;;;;;5100520;28;19935;-59
2023/08/15 05:40:08;;;;;;;;;;;23.70;62.80;;;;;;5095534;28;19980;-60
2023/08/15 05:42:37;;;;;;;;;;;23.70;62.80;;;;;;5112630;27;19931;-60
2023/08/15 05:45:03;;;;;;;;;;;23.70;62.90;;;;;;5124009;27;19928;-60
2023/08/15 05:47:30;;;;;;;;;;;23.70;62.90;;;;;;5105115;28;19977;-60
2023/08/15 05:49:57;;;;;;;;;;;23.70;63.00;;;;;;5118213;27;19968;-59
2023/08/15 05:52:24;;;;;;;;;;;23.70;63.00;;;;;;5124295;27;19923;-59
2023/08/15 05:54:51;;;;;;;;;;;23.70;63.00;;;;;;5110356;27;19927;-60
2023/08/15 05:57:17;;;;;;;;;;;23.70;63.10;;;;;;5103907;28;19928;-59
2023/08/15 05:59:45;;;;;;;;;;;23.70;63.10;;;;;;5104575;27;19989;-57
2023/08/15 06:02:12;;;;;;;;;;;23.70;63.20;;;;;;5117342;27;19984;-59
2023/08/15 06:04:39;;;;;;;;;;;23.70;63.20;;;;;;5104542;28;19935;-60
2023/08/15 06:07:06;;;;;;;;;;;23.70;63.30;;;;;;5106367;28;19924;-59
2023/08/15 06:09:33;;;;;;;;;;;23.70;63.40;;;;;;5098487;27;19981;-60
2023/08/15 06:11:59;;;;;;;;;;;23.70;63.40;;;;;;5101821;27;19932;-60
2023/08/15 06:14:26;;;;;;;;;;;23.70;63.40;;;;;;5101593;27;19931;-59
2023/08/15 06:16:54;;;;;;;;;;;23.70;63.40;;;;;;5125968;27;19927;-60
2023/08/15 06:19:21;;;;;;;;;;;23.70;63.50;;;;;;5095515;28;20388;-59
2023/08/15 06:21:48;;;;;;;;;;;23.70;63.50;;;;;;5124692;27;19935;-60
2023/08/15 06:24:14;;;;;;;;;;;23.70;63.50;;;;;;5122959;27;19923;-60
2023/08/15 06:26:41;;;;;;;;;;;23.70;63.60;;;;;;5119934;27;19928;-60
2023/08/15 06:29:08;;;;;;;;;;;23.70;63.60;;;;;;5136268;27;19923;-59
2023/08/15 06:31:35;;;;;;;;;;;23.70;63.60;;;;;;5099931;27;19931;-60
2023/08/15 06:34:03;;;;;;;;;;;23.80;63.80;;;;;;5104639;28;20286;-62
2023/08/15 06:36:30;;;;;;;;;;;23.70;63.70;;;;;;5114047;27;20421;-63
2023/08/15 06:38:57;;;;;;;;;;;23.80;63.90;;;;;;5094330;28;19931;-63
2023/08/15 06:41:23;;;;;;;;;;;23.70;63.90;;;;;;5103606;27;19958;-63
2023/08/15 06:43:50;;;;;;;;;;;23.80;64.30;;;;;;5133864;27;19936;-65
2023/08/15 06:46:17;;;;;;;;;;;23.80;65.10;;;;;;5093708;28;19924;-62
2023/08/15 06:48:43;;;;;;;;;;;23.80;65.80;;;;;;5098463;28;20012;-66
2023/08/15 06:51:12;;;;;;;;;;;23.80;66.70;;;;;;5095117;28;19978;-63
2023/08/15 06:53:40;;;;;;;;;;;23.80;66.90;;;;;;5095155;28;19939;-65
2023/08/15 06:56:07;;;;;;;;;;;23.90;67.30;;;;;;5108949;27;19928;-62
2023/08/15 06:58:33;;;;;;;;;;;23.90;67.70;;;;;;5091514;28;19931;-62
2023/08/15 07:01:01;;;;;;;;;;;23.90;67.00;;;;;;5098256;27;19931;-65
2023/08/15 07:03:27;;;;;;;;;;;23.90;67.20;;;;;;5131434;27;19928;-62
2023/08/15 07:05:54;;;;;;;;;;;23.90;67.00;;;;;;5093595;28;20104;-62
2023/08/15 07:08:22;;;;;;;;;;;23.90;67.50;;;;;;5100225;28;19935;-62
2023/08/15 07:10:54;;;;;;;;;;;23.90;67.20;;;;;;5113904;27;19924;-62
2023/08/15 07:13:20;;;;;;;;;;;24.00;67.90;;;;;;5094156;28;19928;-65
2023/08/15 07:15:47;;;;;;;;;;;24.00;67.90;;;;;;5114373;27;19931;-63
2023/08/15 07:18:14;;;;;;;;;;;24.00;67.80;;;;;;5112635;28;19990;-61
2023/08/15 07:20:41;;;;;;;;;;;24.00;68.70;;;;;;5101806;27;19943;-63
2023/08/15 07:23:08;;;;;;;;;;;24.00;67.90;;;;;;5101987;27;19939;-62
2023/08/15 07:25:41;;;;;;;;;;;24.00;67.70;;;;;;5127024;27;19930;-62
2023/08/15 07:28:08;;;;;;;;;;;24.00;67.90;;;;;;5111963;27;20004;-62
2023/08/15 07:30:35;;;;;;;;;;;24.00;67.70;;;;;;5097830;27;19924;-62
2023/08/15 07:33:01;;;;;;;;;;;24.00;67.70;;;;;;5093528;28;19931;-63
2023/08/15 07:35:28;;;;;;;;;;;24.00;68.20;;;;;;5101336;27;19947;-62
2023/08/15 07:37:55;;;;;;;;;;;24.00;67.90;;;;;;5122324;27;19928;-63
2023/08/15 07:40:22;;;;;;;;;;;24.00;68.20;;;;;;5095896;28;19923;-62
2023/08/15 07:42:53;;;;;;;;;;;24.00;68.20;;;;;;5095485;27;19923;-62
2023/08/15 07:45:19;;;;;;;;;;;24.00;67.90;;;;;;5111361;28;19930;-62
2023/08/15 07:47:51;;;;;;;;;;;24.00;68.10;;;;;;5095512;27;19976;-62
2023/08/15 07:50:18;;;;;;;;;;;24.00;67.90;;;;;;5089251;28;20643;-61
2023/08/15 07:52:45;;;;;;;;;;;24.00;68.10;;;;;;5099654;27;19931;-63
2023/08/15 07:55:12;;;;;;;;;;;24.00;68.30;;;;;;5098924;28;19927;-64
2023/08/15 07:57:39;;;;;;;;;;;24.10;68.70;;;;;;5093263;28;20374;-65
2023/08/15 08:00:08;;;;;;;;;;;24.10;69.00;;;;;;5094652;28;19931;-63
2023/08/15 08:02:36;;;;;;;;;;;24.10;69.20;;;;;;5091396;28;19973;-62
2023/08/15 08:05:06;;;;;;;;;;;24.10;69.10;;;;;;5127989;27;19931;-64
2023/08/15 08:07:33;;;;;;;;;;;24.10;69.00;;;;;;5097390;28;19924;-64
2023/08/15 08:10:00;;;;;;;;;;;24.10;69.10;;;;;;5120212;27;19923;-64
2023/08/15 08:12:27;;;;;;;;;;;24.10;69.50;;;;;;5112881;27;19928;-66
2023/08/15 08:14:53;;;;;;;;;;;24.10;69.90;;;;;;5100027;27;19931;-63
2023/08/15 08:17:21;;;;;;;;;;;24.10;70.00;;;;;;5093738;28;19928;-61
2023/08/15 08:19:48;;;;;;;;;;;24.10;69.90;;;;;;5092570;27;19924;-63
2023/08/15 08:22:15;;;;;;;;;;;24.10;70.00;;;;;;5096948;28;19976;-62
2023/08/15 08:24:42;;;;;;;;;;;24.00;70.30;;;;;;5097245;28;19942;-62
2023/08/15 08:27:08;;;;;;;;;;;24.00;70.60;;;;;;5100878;28;19928;-62
2023/08/15 08:29:35;;;;;;;;;;;24.00;70.50;;;;;;5094415;28;19924;-62
2023/08/15 08:32:02;;;;;;;;;;;24.00;70.70;;;;;;5093300;28;19943;-62
2023/08/15 08:34:30;;;;;;;;;;;24.00;70.80;;;;;;5095356;28;19924;-62
2023/08/15 08:36:57;;;;;;;;;;;24.00;70.90;;;;;;5094571;28;19932;-63
2023/08/15 08:39:24;;;;;;;;;;;24.00;70.80;;;;;;5094128;28;19928;-61
2023/08/15 08:41:50;;;;;;;;;;;24.00;70.90;;;;;;5093707;27;19932;-62
2023/08/15 08:44:17;;;;;;;;;;;24.00;70.60;;;;;;5093304;28;19924;-61
2023/08/15 08:46:44;;;;;;;;;;;24.00;71.30;;;;;;5095456;28;19927;-61
2023/08/15 08:49:11;;;;;;;;;;;24.00;70.60;;;;;;5092122;28;20992;-63
2023/08/15 08:51:39;;;;;;;;;;;24.00;71.40;;;;;;5094743;27;19947;-63
2023/08/15 08:54:06;;;;;;;;;;;24.00;71.40;;;;;;5094011;28;19959;-64
2023/08/15 08:56:33;;;;;;;;;;;24.00;71.40;;;;;;5113852;28;19923;-64
2023/08/15 08:59:00;;;;;;;;;;;24.00;71.50;;;;;;5115379;27;19935;-63
2023/08/15 09:01:27;;;;;;;;;;;24.00;72.30;;;;;;5094844;28;19924;-62
2023/08/15 09:03:54;;;;;;;;;;;24.10;72.00;;;;;;5122330;28;20161;-64
2023/08/15 09:06:20;;;;;;;;;;;24.00;71.90;;;;;;5094381;28;20034;-62
2023/08/15 09:08:48;;;;;;;;;;;24.00;72.00;;;;;;5092484;28;19924;-63
2023/08/15 09:11:15;;;;;;;;;;;24.00;72.00;;;;;;5096128;28;19924;-62
2023/08/15 09:13:48;;;;;;;;;;;24.00;72.00;;;;;;5116633;27;19931;-63
2023/08/15 09:16:15;;;;;;;;;;;24.00;72.20;;;;;;5119071;27;19931;-63
2023/08/15 09:18:42;;;;;;;;;;;24.00;72.10;;;;;;5105215;27;19934;-63
2023/08/15 09:21:09;;;;;;;;;;;24.00;71.90;;;;;;5114948;28;19969;-63
2023/08/15 09:23:35;;;;;;;;;;;24.00;72.00;;;;;;5096233;27;19927;-62
2023/08/15 09:26:13;;;;;;;;;;;24.00;71.90;;;;;;5114540;28;19931;-62
2023/08/15 09:28:40;;;;;;;;;;;24.00;71.60;;;;;;5129161;27;19931;-64
2023/08/15 09:31:09;;;;;;;;;;;24.10;71.70;;;;;;5113455;28;19924;-65
2023/08/15 09:33:35;;;;;;;;;;;24.10;71.70;;;;;;5096187;28;20007;-63
2023/08/15 09:36:04;;;;;;;;;;;24.10;71.50;;;;;;5097497;28;19931;-63
2023/08/15 09:38:30;;;;;;;;;;;24.10;71.70;;;;;;5099715;27;19924;-63
2023/08/15 09:40:57;;;;;;;;;;;24.10;71.60;;;;;;5099055;27;20368;-63
2023/08/15 09:43:26;;;;;;;;;;;24.10;71.50;;;;;;5124687;27;20013;-63
2023/08/15 09:45:52;;;;;;;;;;;24.10;71.60;;;;;;5099946;28;19969;-64
2023/08/15 09:48:19;;;;;;;;;;;24.10;72.30;;;;;;5116515;27;19924;-62
2023/08/15 09:50:46;;;;;;;;;;;24.10;71.60;;;;;;5099350;27;19931;-64
2023/08/15 09:53:13;;;;;;;;;;;24.10;71.60;;;;;;5096543;28;19924;-64
2023/08/15 09:55:40;;;;;;;;;;;24.10;71.70;;;;;;5123478;27;19932;-64
2023/08/15 09:58:07;;;;;;;;;;;24.10;71.70;;;;;;5096832;28;19981;-63
2023/08/15 10:00:35;;;;;;;;;;;24.10;71.80;;;;;;5097665;28;19927;-60
2023/08/15 10:03:03;;;;;;;;;;;24.10;72.10;;;;;;5097012;28;19931;-63
2023/08/15 10:05:31;;;;;;;;;;;24.20;72.50;;;;;;5100572;27;19935;-65
2023/08/15 10:07:58;;;;;;;;;;;24.20;72.60;;;;;;5124124;27;19997;-62
2023/08/15 10:10:24;;;;;;;;;;;24.20;72.80;;;;;;5117823;27;19984;-62
2023/08/15 10:12:51;;;;;;;;;;;24.20;73.10;;;;;;5099305;27;20330;-61
2023/08/15 10:15:18;;;;;;;;;;;24.30;73.40;;;;;;5095790;28;19980;-64
2023/08/15 10:17:46;;;;;;;;;;;24.30;73.20;;;;;;5102751;27;19927;-65
2023/08/15 10:20:16;;;;;;;;;;;24.30;73.50;;;;;;5098002;28;19924;-62
2023/08/15 10:22:42;;;;;;;;;;;24.30;73.10;;;;;;5100742;28;19985;-64
2023/08/15 10:25:18;;;;;;;;;;;24.30;73.00;;;;;;5114778;27;19923;-64
2023/08/15 10:27:46;;;;;;;;;;;24.30;72.90;;;;;;5126501;27;19928;-65
2023/08/15 10:30:13;;;;;;;;;;;24.30;72.80;;;;;;5096798;28;19989;-61
2023/08/15 10:32:40;;;;;;;;;;;24.30;72.70;;;;;;5096865;27;20290;-61
2023/08/15 10:35:09;;;;;;;;;;;24.30;72.80;;;;;;5096864;28;19932;-62
2023/08/15 10:37:37;;;;;;;;;;;24.30;72.70;;;;;;5097176;27;19932;-63
2023/08/15 10:40:08;;;;;;;;;;;24.30;72.70;;;;;;5095519;28;19931;-61
2023/08/15 10:42:54;;;;;;;;;;;24.30;72.60;;;;;;5099767;27;19924;-61
2023/08/15 10:45:20;;;;;;;;;;;24.30;72.70;;;;;;5097873;28;19985;-63
2023/08/15 10:47:47;;;;;;;;;;;24.40;72.60;;;;;;5099000;27;19923;-62
2023/08/15 10:50:15;;;;;;;;;;;24.40;72.40;;;;;;5100437;28;19931;-62
2023/08/15 10:52:42;;;;;;;;;;;24.40;72.50;;;;;;5099985;27;19931;-64
2023/08/15 10:55:09;;;;;;;;;;;24.40;72.60;;;;;;5097032;28;19931;-61
2023/08/15 10:57:36;;;;;;;;;;;24.40;72.60;;;;;;5099399;28;19949;-63
2023/08/15 11:00:04;;;;;;;;;;;24.40;72.60;;;;;;5105109;28;19927;-62
2023/08/15 11:02:31;;;;;;;;;;;24.40;72.70;;;;;;5122328;27;19930;-61
2023/08/15 11:04:58;;;;;;;;;;;24.40;72.60;;;;;;5098537;28;19932;-62
2023/08/15 11:07:26;;;;;;;;;;;24.40;72.60;;;;;;5113138;28;19924;-62
2023/08/15 11:09:53;;;;;;;;;;;24.40;72.80;;;;;;5103333;27;19934;-62
2023/08/15 11:12:20;;;;;;;;;;;24.40;72.80;;;;;;5103513;27;19931;-63
2023/08/15 11:14:49;;;;;;;;;;;24.40;72.80;;;;;;5096307;27;19927;-63
2023/08/15 11:17:16;;;;;;;;;;;24.40;72.80;;;;;;5113907;27;20434;-62
2023/08/15 11:19:42;;;;;;;;;;;24.40;72.40;;;;;;5099151;27;20179;-62
2023/08/15 11:22:09;;;;;;;;;;;24.40;72.60;;;;;;5099615;28;19923;-64
2023/08/15 11:24:37;;;;;;;;;;;24.40;72.30;;;;;;5098121;27;20474;-63
2023/08/15 11:27:04;;;;;;;;;;;24.40;72.30;;;;;;5097603;27;19932;-63
2023/08/15 11:29:31;;;;;;;;;;;24.40;72.20;;;;;;5115237;27;19924;-63
2023/08/15 11:32:00;;;;;;;;;;;24.40;72.00;;;;;;5097941;28;19923;-63
2023/08/15 11:34:29;;;;;;;;;;;24.40;72.00;;;;;;5100409;27;19978;-63
2023/08/15 11:36:55;;;;;;;;;;;24.40;72.20;;;;;;5097425;27;19934;-63
2023/08/15 11:39:22;;;;;;;;;;;24.40;71.90;;;;;;5111620;28;19928;-62
2023/08/15 11:41:50;;;;;;;;;;;24.50;72.00;;;;;;5100308;28;19959;-63
2023/08/15 11:44:20;;;;;;;;;;;24.50;72.00;;;;;;5104266;27;19938;-63
2023/08/15 11:46:47;;;;;;;;;;;24.50;71.70;;;;;;5096672;27;19934;-64
2023/08/15 11:49:17;;;;;;;;;;;24.50;71.70;;;;;;5094814;28;19924;-64
2023/08/15 11:51:44;;;;;;;;;;;24.50;71.90;;;;;;5095721;28;19924;-62
2023/08/15 11:54:11;;;;;;;;;;;24.60;72.30;;;;;;5099096;28;19977;-62
2023/08/15 11:56:47;;;;;;;;;;;24.60;72.10;;;;;;5096377;27;20308;-64
2023/08/15 11:59:18;;;;;;;;;;;24.60;71.90;;;;;;5097311;28;19920;-62
2023/08/15 12:01:44;;;;;;;;;;;24.70;71.90;;;;;;5100677;27;19923;-62
2023/08/15 12:04:12;;;;;;;;;;;24.70;71.60;;;;;;5111087;28;19924;-61
2023/08/15 12:06:39;;;;;;;;;;;24.70;71.50;;;;;;5131601;27;19981;-62
2023/08/15 12:09:06;;;;;;;;;;;24.80;71.40;;;;;;5117688;27;19931;-64
2023/08/15 12:11:33;;;;;;;;;;;24.80;71.40;;;;;;5094934;28;19924;-63
2023/08/15 12:14:00;;;;;;;;;;;24.80;71.40;;;;;;5099639;27;19923;-65
2023/08/15 12:16:28;;;;;;;;;;;24.80;71.20;;;;;;5113599;27;19969;-65
2023/08/15 12:18:55;;;;;;;;;;;24.70;71.00;;;;;;5112766;27;19928;-65
2023/08/15 12:21:22;;;;;;;;;;;24.70;70.90;;;;;;5096410;28;19985;-65
2023/08/15 12:23:49;;;;;;;;;;;24.70;70.90;;;;;;5095747;28;20006;-63
2023/08/15 12:26:16;;;;;;;;;;;24.70;70.80;;;;;;5124037;27;19993;-64
2023/08/15 12:28:42;;;;;;;;;;;24.70;70.70;;;;;;5111960;27;19932;-63
2023/08/15 12:31:09;;;;;;;;;;;24.70;70.70;;;;;;5098057;28;19928;-60
2023/08/15 12:33:37;;;;;;;;;;;24.70;70.70;;;;;;5091888;28;19997;-64
2023/08/15 12:36:04;;;;;;;;;;;24.70;71.50;;;;;;5098419;28;19931;-64
2023/08/15 12:38:31;;;;;;;;;;;24.70;70.60;;;;;;5109679;28;19970;-63
2023/08/15 12:40:58;;;;;;;;;;;24.70;70.50;;;;;;5093864;28;20517;-63
2023/08/15 12:43:25;;;;;;;;;;;24.70;70.40;;;;;;5092969;28;19927;-62
2023/08/15 12:45:51;;;;;;;;;;;24.60;70.20;;;;;;5093029;28;19936;-62
2023/08/15 12:48:18;;;;;;;;;;;24.60;70.10;;;;;;5093604;28;20300;-61
2023/08/15 12:50:46;;;;;;;;;;;24.60;70.00;;;;;;5092135;28;20448;-63
2023/08/15 12:53:13;;;;;;;;;;;24.60;69.90;;;;;;5093919;28;19931;-61
2023/08/15 12:55:40;;;;;;;;;;;24.60;69.80;;;;;;5092360;28;19924;-63
2023/08/15 12:58:06;;;;;;;;;;;24.60;69.80;;;;;;5113410;28;20052;-62
2023/08/15 13:00:33;;;;;;;;;;;24.60;69.70;;;;;;5109695;28;19928;-62
2023/08/15 13:03:00;;;;;;;;;;;24.60;69.60;;;;;;5091447;28;19930;-63
2023/08/15 13:05:26;;;;;;;;;;;24.60;69.30;;;;;;5092454;28;19924;-63
2023/08/15 13:07:55;;;;;;;;;;;24.60;69.30;;;;;;5092322;28;19945;-62
2023/08/15 13:10:21;;;;;;;;;;;24.60;69.20;;;;;;5092044;28;19946;-63
2023/08/15 13:12:48;;;;;;;;;;;24.60;69.00;;;;;;5091235;28;19931;-64
2023/08/15 13:15:15;;;;;;;;;;;24.60;68.80;;;;;;5126818;27;20360;-63
2023/08/15 13:17:42;;;;;;;;;;;24.60;68.60;;;;;;5115635;28;19923;-63
2023/08/15 13:20:11;;;;;;;;;;;24.60;68.40;;;;;;5095615;28;19927;-63
2023/08/15 13:22:37;;;;;;;;;;;24.60;68.30;;;;;;5100944;28;19931;-63
2023/08/15 13:25:06;;;;;;;;;;;24.60;68.00;;;;;;5089638;28;20015;-65
2023/08/15 13:27:33;;;;;;;;;;;24.60;68.00;;;;;;5128275;27;20008;-63
2023/08/15 13:30:00;;;;;;;;;;;24.60;67.80;;;;;;5112049;28;19923;-63
2023/08/15 13:32:27;;;;;;;;;;;24.60;67.60;;;;;;5115155;28;19928;-62
2023/08/15 13:34:54;;;;;;;;;;;24.60;67.50;;;;;;5088825;28;19972;-63
2023/08/15 13:37:21;;;;;;;;;;;24.60;67.30;;;;;;5100917;28;19928;-63
2023/08/15 13:39:47;;;;;;;;;;;24.60;67.20;;;;;;5094668;28;19928;-61
2023/08/15 13:42:15;;;;;;;;;;;24.60;67.30;;;;;;5095268;28;19934;-61
2023/08/15 13:44:42;;;;;;;;;;;24.60;67.10;;;;;;5095314;28;19931;-62
2023/08/15 13:47:09;;;;;;;;;;;24.60;67.00;;;;;;5092821;28;19932;-61
2023/08/15 13:49:36;;;;;;;;;;;24.60;67.00;;;;;;5113282;28;20445;-62
2023/08/15 13:52:03;;;;;;;;;;;24.60;66.90;;;;;;5107098;28;20238;-61
2023/08/15 13:54:29;;;;;;;;;;;24.60;66.80;;;;;;5102583;28;19939;-62
2023/08/15 13:56:56;;;;;;;;;;;24.60;66.80;;;;;;5104672;28;20018;-61
2023/08/15 13:59:24;;;;;;;;;;;24.60;66.30;;;;;;5101371;28;19973;-62
2023/08/15 14:01:51;;;;;;;;;;;24.60;66.00;;;;;;5095386;28;19947;-62
2023/08/15 14:04:18;;;;;;;;;;;24.60;65.70;;;;;;5122741;27;19928;-62
2023/08/15 14:06:45;;;;;;;;;;;24.60;65.50;;;;;;5131559;27;19927;-62
2023/08/15 14:09:12;;;;;;;;;;;24.60;65.50;;;;;;5103990;28;19924;-62
2023/08/15 14:11:38;;;;;;;;;;;24.60;65.30;;;;;;5097179;27;19927;-62
2023/08/15 14:14:05;;;;;;;;;;;24.60;65.30;;;;;;5100847;27;19924;-63
2023/08/15 14:16:33;;;;;;;;;;;24.60;65.20;;;;;;5110064;28;19923;-61